Current Weather



TAF Data Links

METAR Data Links

Latest METAR/TAF Data


Available data for KAUS from the past 2 hours
AUSTIN, TX
Metar
KAUS 111153Z 36010KT 10SM OVC009 05/03 A3047 RMK AO2 SLP324 70034 T00500028 10050 20011 53005

11:53 UTC

Wind: 360° 10kt

Visibility: 10 SM

Sky: OVC 900 ft

Temp: 5 deg C / 41 deg F

Dewpoint: 3 deg C / 37.4 deg F

Pressure: 30.47 inHg

TAF
KAUS 111138Z 1112/1218 36007KT P6SM OVC009 FM111600 02008KT P6SM BKN012 FM111700 03008KT P6SM SCT015 FM111800 04009KT P6SM SKC FM120700 09004KT P6SM BKN040 FM121200 13006KT P6SM BKN025
Pirep (1)
AUS UA /OV CWK270020/TM 1230/FL340/TP A319/TB MOD CHOP/RM FM KZHU AWC-WEB/


Available data for KEDC from the past 2 hours
AUSTIN EXEC, TX
Metar
KEDC 111235Z AUTO 03007KT 10SM OVC008 04/03 A3050 RMK AO2

12:35 UTC

Wind: 30° 7kt

Visibility: 10 SM

Sky: OVC 800 ft

Temp: 4 deg C / 39.2 deg F

Dewpoint: 3 deg C / 37.4 deg F

Pressure: 30.5 inHg

Pirep (1)
AUS UA /OV CWK270020/TM 1230/FL340/TP A319/TB MOD CHOP/RM FM KZHU AWC-WEB/


Available data for KRYW from the past 2 hours
LAGO VISTA, TX
Metar
KRYW 111235Z AUTO 04004KT 1/4SM -SN OVC003 01/01 A3047 RMK AO2 T00060006

12:35 UTC

Wind: 40° 4kt

Visibility: 0.25 SM

Sky: OVC 300 ft

Temp: 1 deg C / 33.8 deg F

Dewpoint: 1 deg C / 33.8 deg F

Pressure: 30.47 inHg

Pirep (1)
AUS UA /OV CWK270020/TM 1230/FL340/TP A319/TB MOD CHOP/RM FM KZHU AWC-WEB/